sensor_id;sensor_type;location;lat;lon;timestamp;pressure;altitude;pressure_sealevel;temperature;humidity
15646;BME280;7922;43.622;1.476;2023-07-13T00:01:48;100434.47;;;21.71;90.45
15646;BME280;7922;43.622;1.476;2023-07-13T00:04:14;100371.06;;;21.33;90.67
15646;BME280;7922;43.622;1.476;2023-07-13T00:06:39;100357.97;;;21.28;90.84
15646;BME280;7922;43.622;1.476;2023-07-13T00:09:05;100434.97;;;21.76;90.70
15646;BME280;7922;43.622;1.476;2023-07-13T00:11:30;100396.16;;;21.56;90.25
15646;BME280;7922;43.622;1.476;2023-07-13T00:13:55;100361.91;;;21.35;90.39
15646;BME280;7922;43.622;1.476;2023-07-13T00:16:20;100408.66;;;21.68;90.22
15646;BME280;7922;43.622;1.476;2023-07-13T00:18:47;100420.50;;;21.77;90.16
15646;BME280;7922;43.622;1.476;2023-07-13T00:21:12;100438.91;;;21.72;89.68
15646;BME280;7922;43.622;1.476;2023-07-13T00:23:39;100426.78;;;21.66;89.86
15646;BME280;7922;43.622;1.476;2023-07-13T00:26:07;100380.88;;;21.34;90.04
15646;BME280;7922;43.622;1.476;2023-07-13T00:28:33;100422.88;;;21.59;89.91
15646;BME280;7922;43.622;1.476;2023-07-13T00:30:59;100389.81;;;21.34;89.69
15646;BME280;7922;43.622;1.476;2023-07-13T00:33:25;100412.72;;;21.51;89.50
15646;BME280;7922;43.622;1.476;2023-07-13T00:35:50;100365.16;;;21.16;88.92
15646;BME280;7922;43.622;1.476;2023-07-13T00:38:16;100419.19;;;21.49;88.97
15646;BME280;7922;43.622;1.476;2023-07-13T00:40:41;100352.06;;;21.12;88.41
15646;BME280;7922;43.622;1.476;2023-07-13T00:43:16;100427.03;;;21.52;88.96
15646;BME280;7922;43.622;1.476;2023-07-13T00:48:11;100396.28;;;21.32;88.96
15646;BME280;7922;43.622;1.476;2023-07-13T00:50:38;100354.06;;;21.10;88.85
15646;BME280;7922;43.622;1.476;2023-07-13T00:53:04;100345.34;;;20.95;89.04
15646;BME280;7922;43.622;1.476;2023-07-13T00:55:29;100406.19;;;21.31;88.92
15646;BME280;7922;43.622;1.476;2023-07-13T00:57:55;100428.16;;;21.38;88.32
15646;BME280;7922;43.622;1.476;2023-07-13T01:00:21;100386.88;;;21.15;87.94
15646;BME280;7922;43.622;1.476;2023-07-13T01:02:48;100408.66;;;21.23;88.31
15646;BME280;7922;43.622;1.476;2023-07-13T01:05:16;100440.16;;;21.45;88.11
15646;BME280;7922;43.622;1.476;2023-07-13T01:07:43;100416.13;;;21.31;87.72
15646;BME280;7922;43.622;1.476;2023-07-13T01:10:31;100438.31;;;21.46;87.46
15646;BME280;7922;43.622;1.476;2023-07-13T01:12:56;100423.34;;;21.30;87.47
15646;BME280;7922;43.622;1.476;2023-07-13T01:15:43;100384.16;;;21.04;87.44
15646;BME280;7922;43.622;1.476;2023-07-13T01:18:15;100387.59;;;21.06;87.28
15646;BME280;7922;43.622;1.476;2023-07-13T01:20:41;100395.44;;;21.09;87.62
15646;BME280;7922;43.622;1.476;2023-07-13T01:23:10;100425.44;;;21.27;87.28
15646;BME280;7922;43.622;1.476;2023-07-13T01:25:37;100440.38;;;21.31;87.71
15646;BME280;7922;43.622;1.476;2023-07-13T01:28:06;100424.97;;;21.22;87.25
15646;BME280;7922;43.622;1.476;2023-07-13T01:30:32;100440.28;;;21.32;87.20
15646;BME280;7922;43.622;1.476;2023-07-13T01:32:58;100424.81;;;21.12;86.65
15646;BME280;7922;43.622;1.476;2023-07-13T01:35:24;100387.25;;;20.88;86.74
15646;BME280;7922;43.622;1.476;2023-07-13T01:37:49;100436.22;;;21.04;86.18
15646;BME280;7922;43.622;1.476;2023-07-13T01:40:14;100432.41;;;21.07;85.73
15646;BME280;7922;43.622;1.476;2023-07-13T01:42:39;100403.13;;;20.80;86.24
15646;BME280;7922;43.622;1.476;2023-07-13T01:45:05;100395.88;;;20.80;85.75
15646;BME280;7922;43.622;1.476;2023-07-13T01:47:31;100430.56;;;20.96;85.25
15646;BME280;7922;43.622;1.476;2023-07-13T01:49:57;100421.34;;;20.87;85.37
15646;BME280;7922;43.622;1.476;2023-07-13T01:52:22;100443.66;;;21.01;86.13
15646;BME280;7922;43.622;1.476;2023-07-13T01:54:47;100406.31;;;20.74;86.79
15646;BME280;7922;43.622;1.476;2023-07-13T01:57:13;100432.75;;;20.91;86.70
15646;BME280;7922;43.622;1.476;2023-07-13T01:59:38;100388.63;;;20.58;86.89
15646;BME280;7922;43.622;1.476;2023-07-13T02:02:04;100454.66;;;20.86;86.31
15646;BME280;7922;43.622;1.476;2023-07-13T02:04:29;100447.25;;;20.66;86.82
15646;BME280;7922;43.622;1.476;2023-07-13T02:06:54;100452.41;;;20.69;86.88
15646;BME280;7922;43.622;1.476;2023-07-13T02:09:19;100437.47;;;20.65;86.75
15646;BME280;7922;43.622;1.476;2023-07-13T02:11:45;100422.53;;;20.61;86.23
15646;BME280;7922;43.622;1.476;2023-07-13T02:14:10;100412.06;;;20.45;86.14
15646;BME280;7922;43.622;1.476;2023-07-13T02:16:35;100382.25;;;20.13;85.91
15646;BME280;7922;43.622;1.476;2023-07-13T02:19:01;100440.16;;;20.54;86.00
15646;BME280;7922;43.622;1.476;2023-07-13T02:21:26;100439.63;;;20.49;85.75
15646;BME280;7922;43.622;1.476;2023-07-13T02:23:51;100392.38;;;20.09;85.80
15646;BME280;7922;43.622;1.476;2023-07-13T02:26:17;100401.31;;;20.10;85.97
15646;BME280;7922;43.622;1.476;2023-07-13T02:28:42;100456.53;;;20.51;85.87
15646;BME280;7922;43.622;1.476;2023-07-13T02:31:10;100384.75;;;20.03;85.37
15646;BME280;7922;43.622;1.476;2023-07-13T02:33:35;100387.09;;;20.08;85.42
15646;BME280;7922;43.622;1.476;2023-07-13T02:36:01;100368.59;;;19.92;85.67
15646;BME280;7922;43.622;1.476;2023-07-13T02:38:26;100398.13;;;20.05;85.13
15646;BME280;7922;43.622;1.476;2023-07-13T02:40:51;100397.31;;;19.91;85.43
15646;BME280;7922;43.622;1.476;2023-07-13T02:43:16;100458.59;;;20.23;83.61
15646;BME280;7922;43.622;1.476;2023-07-13T02:45:45;100435.81;;;19.92;83.26
15646;BME280;7922;43.622;1.476;2023-07-13T02:48:11;100404.91;;;19.74;80.23
15646;BME280;7922;43.622;1.476;2023-07-13T02:50:36;100462.47;;;19.95;79.08
15646;BME280;7922;43.622;1.476;2023-07-13T02:53:01;100410.63;;;19.69;77.72
15646;BME280;7922;43.622;1.476;2023-07-13T02:55:27;100484.78;;;19.84;76.33
15646;BME280;7922;43.622;1.476;2023-07-13T02:57:52;100480.59;;;19.80;75.57
15646;BME280;7922;43.622;1.476;2023-07-13T03:00:17;100406.38;;;19.41;75.27
15646;BME280;7922;43.622;1.476;2023-07-13T03:02:43;100483.84;;;19.73;75.47
15646;BME280;7922;43.622;1.476;2023-07-13T03:05:09;100426.59;;;19.34;75.44
15646;BME280;7922;43.622;1.476;2023-07-13T03:07:34;100427.53;;;19.45;74.97
15646;BME280;7922;43.622;1.476;2023-07-13T03:09:59;100465.13;;;19.58;74.70
15646;BME280;7922;43.622;1.476;2023-07-13T03:12:25;100499.97;;;19.73;74.77
15646;BME280;7922;43.622;1.476;2023-07-13T03:14:50;100426.03;;;19.41;75.28
15646;BME280;7922;43.622;1.476;2023-07-13T03:17:16;100491.78;;;19.74;75.50
15646;BME280;7922;43.622;1.476;2023-07-13T03:19:41;100493.09;;;19.68;75.88
15646;BME280;7922;43.622;1.476;2023-07-13T03:22:06;100466.56;;;19.51;75.78
15646;BME280;7922;43.622;1.476;2023-07-13T03:24:33;100449.69;;;19.36;76.38
15646;BME280;7922;43.622;1.476;2023-07-13T03:27:01;100502.47;;;19.63;76.79
15646;BME280;7922;43.622;1.476;2023-07-13T03:29:27;100443.38;;;19.24;77.15
15646;BME280;7922;43.622;1.476;2023-07-13T03:31:52;100504.81;;;19.55;76.05
15646;BME280;7922;43.622;1.476;2023-07-13T03:34:17;100496.75;;;19.42;75.86
15646;BME280;7922;43.622;1.476;2023-07-13T03:36:43;100452.19;;;19.01;75.92
15646;BME280;7922;43.622;1.476;2023-07-13T03:39:08;100473.22;;;18.94;74.85
15646;BME280;7922;43.622;1.476;2023-07-13T03:41:34;100475.19;;;18.92;74.33
15646;BME280;7922;43.622;1.476;2023-07-13T03:43:59;100460.88;;;18.79;74.20
15646;BME280;7922;43.622;1.476;2023-07-13T03:46:24;100522.03;;;19.14;74.05
15646;BME280;7922;43.622;1.476;2023-07-13T03:48:50;100470.84;;;18.77;74.90
15646;BME280;7922;43.622;1.476;2023-07-13T03:51:16;100474.41;;;18.90;74.61
15646;BME280;7922;43.622;1.476;2023-07-13T03:53:43;100460.13;;;18.77;74.71
15646;BME280;7922;43.622;1.476;2023-07-13T03:56:10;100459.69;;;18.83;74.76
15646;BME280;7922;43.622;1.476;2023-07-13T03:58:39;100493.53;;;18.98;75.04
15646;BME280;7922;43.622;1.476;2023-07-13T04:01:06;100468.06;;;18.79;75.16
15646;BME280;7922;43.622;1.476;2023-07-13T04:03:33;100464.47;;;18.65;75.67
15646;BME280;7922;43.622;1.476;2023-07-13T04:06:03;100516.72;;;18.87;76.10
15646;BME280;7922;43.622;1.476;2023-07-13T04:08:34;100486.50;;;18.70;76.38
15646;BME280;7922;43.622;1.476;2023-07-13T04:11:00;100528.75;;;18.81;76.83
15646;BME280;7922;43.622;1.476;2023-07-13T04:13:26;100473.38;;;18.53;76.69
15646;BME280;7922;43.622;1.476;2023-07-13T04:15:53;100541.75;;;18.87;76.95
15646;BME280;7922;43.622;1.476;2023-07-13T04:18:19;100534.72;;;18.72;77.32
15646;BME280;7922;43.622;1.476;2023-07-13T04:20:46;100525.34;;;18.65;77.71
15646;BME280;7922;43.622;1.476;2023-07-13T04:23:11;100506.09;;;18.45;77.96
15646;BME280;7922;43.622;1.476;2023-07-13T04:25:36;100496.53;;;18.41;77.89
15646;BME280;7922;43.622;1.476;2023-07-13T04:28:03;100556.00;;;18.88;77.98
15646;BME280;7922;43.622;1.476;2023-07-13T04:30:29;100513.25;;;18.72;77.71
15646;BME280;7922;43.622;1.476;2023-07-13T04:32:54;100497.97;;;18.60;76.95
15646;BME280;7922;43.622;1.476;2023-07-13T04:35:19;100539.81;;;18.62;77.34
15646;BME280;7922;43.622;1.476;2023-07-13T04:37:45;100573.28;;;18.84;77.25
15646;BME280;7922;43.622;1.476;2023-07-13T04:40:10;100551.69;;;18.72;76.39
15646;BME280;7922;43.622;1.476;2023-07-13T04:42:36;100553.19;;;18.76;76.38
15646;BME280;7922;43.622;1.476;2023-07-13T04:45:01;100468.97;;;18.12;76.69
15646;BME280;7922;43.622;1.476;2023-07-13T04:47:30;100569.41;;;18.75;76.80
15646;BME280;7922;43.622;1.476;2023-07-13T04:49:55;100571.34;;;18.73;76.72
15646;BME280;7922;43.622;1.476;2023-07-13T04:52:20;100533.59;;;18.62;76.60
15646;BME280;7922;43.622;1.476;2023-07-13T04:54:45;100530.03;;;18.48;76.77
15646;BME280;7922;43.622;1.476;2023-07-13T04:57:11;100515.16;;;18.30;75.94
15646;BME280;7922;43.622;1.476;2023-07-13T04:59:36;100535.16;;;18.51;75.96
15646;BME280;7922;43.622;1.476;2023-07-13T05:02:01;100557.44;;;18.39;76.65
15646;BME280;7922;43.622;1.476;2023-07-13T05:04:27;100583.03;;;18.72;75.67
15646;BME280;7922;43.622;1.476;2023-07-13T05:06:52;100569.56;;;18.59;75.26
15646;BME280;7922;43.622;1.476;2023-07-13T05:09:18;100585.72;;;18.72;74.32
15646;BME280;7922;43.622;1.476;2023-07-13T05:11:43;100571.28;;;18.60;74.18
15646;BME280;7922;43.622;1.476;2023-07-13T05:14:09;100584.75;;;18.73;74.04
15646;BME280;7922;43.622;1.476;2023-07-13T05:16:34;100596.19;;;18.89;73.15
15646;BME280;7922;43.622;1.476;2023-07-13T05:18:59;100555.06;;;18.62;72.84
15646;BME280;7922;43.622;1.476;2023-07-13T05:21:24;100570.31;;;18.61;72.48
15646;BME280;7922;43.622;1.476;2023-07-13T05:23:50;100593.66;;;18.73;72.18
15646;BME280;7922;43.622;1.476;2023-07-13T05:26:15;100597.81;;;18.92;71.42
15646;BME280;7922;43.622;1.476;2023-07-13T05:28:41;100604.28;;;19.02;71.26
15646;BME280;7922;43.622;1.476;2023-07-13T05:31:08;100550.31;;;18.80;70.68
15646;BME280;7922;43.622;1.476;2023-07-13T05:33:34;100590.56;;;19.19;70.28
15646;BME280;7922;43.622;1.476;2023-07-13T05:35:59;100552.19;;;19.05;70.74
15646;BME280;7922;43.622;1.476;2023-07-13T05:38:24;100578.06;;;18.93;70.55
15646;BME280;7922;43.622;1.476;2023-07-13T05:40:50;100568.50;;;19.02;70.07
15646;BME280;7922;43.622;1.476;2023-07-13T05:43:15;100608.94;;;19.38;69.45
15646;BME280;7922;43.622;1.476;2023-07-13T05:45:41;100555.97;;;19.28;69.02
15646;BME280;7922;43.622;1.476;2023-07-13T05:48:06;100571.03;;;19.43;67.24
15646;BME280;7922;43.622;1.476;2023-07-13T05:50:32;100548.47;;;19.33;66.96
15646;BME280;7922;43.622;1.476;2023-07-13T05:52:57;100536.84;;;19.45;67.08
15646;BME280;7922;43.622;1.476;2023-07-13T05:55:23;100622.88;;;20.33;65.49
15646;BME280;7922;43.622;1.476;2023-07-13T05:57:48;100541.47;;;19.81;67.11
15646;BME280;7922;43.622;1.476;2023-07-13T06:00:14;100620.16;;;20.09;67.07
15646;BME280;7922;43.622;1.476;2023-07-13T06:02:40;100557.25;;;19.86;66.98
15646;BME280;7922;43.622;1.476;2023-07-13T06:05:05;100606.94;;;20.30;65.74
15646;BME280;7922;43.622;1.476;2023-07-13T06:07:30;100612.13;;;20.33;64.86
15646;BME280;7922;43.622;1.476;2023-07-13T06:09:56;100568.19;;;20.08;65.72
15646;BME280;7922;43.622;1.476;2023-07-13T06:12:21;100570.47;;;19.89;64.95
15646;BME280;7922;43.622;1.476;2023-07-13T06:14:46;100624.69;;;20.08;65.38
15646;BME280;7922;43.622;1.476;2023-07-13T06:17:12;100623.97;;;20.30;64.15
15646;BME280;7922;43.622;1.476;2023-07-13T06:19:37;100638.00;;;20.10;64.88
15646;BME280;7922;43.622;1.476;2023-07-13T06:22:03;100578.41;;;20.16;64.44
15646;BME280;7922;43.622;1.476;2023-07-13T06:24:28;100588.66;;;20.35;64.03
15646;BME280;7922;43.622;1.476;2023-07-13T06:26:53;100630.94;;;20.33;63.90
15646;BME280;7922;43.622;1.476;2023-07-13T06:29:19;100593.19;;;19.46;65.55
15646;BME280;7922;43.622;1.476;2023-07-13T06:31:44;100612.13;;;19.70;65.90
15646;BME280;7922;43.622;1.476;2023-07-13T06:34:09;100615.59;;;20.22;65.01
15646;BME280;7922;43.622;1.476;2023-07-13T06:36:34;100620.16;;;19.96;65.44
15646;BME280;7922;43.622;1.476;2023-07-13T06:39:00;100655.28;;;20.31;65.43
15646;BME280;7922;43.622;1.476;2023-07-13T06:41:25;100642.91;;;20.29;65.01
15646;BME280;7922;43.622;1.476;2023-07-13T06:43:50;100666.22;;;20.66;64.95
15646;BME280;7922;43.622;1.476;2023-07-13T06:46:16;100660.53;;;20.82;63.56
15646;BME280;7922;43.622;1.476;2023-07-13T06:48:41;100655.56;;;20.89;63.99
15646;BME280;7922;43.622;1.476;2023-07-13T06:51:07;100612.03;;;20.71;63.85
15646;BME280;7922;43.622;1.476;2023-07-13T06:53:33;100618.47;;;21.63;61.63
15646;BME280;7922;43.622;1.476;2023-07-13T06:55:58;100637.19;;;21.18;61.67
15646;BME280;7922;43.622;1.476;2023-07-13T06:58:23;100679.19;;;20.85;63.17
15646;BME280;7922;43.622;1.476;2023-07-13T07:00:51;100643.63;;;20.56;63.87
15646;BME280;7922;43.622;1.476;2023-07-13T07:03:17;100671.19;;;20.84;63.17
15646;BME280;7922;43.622;1.476;2023-07-13T07:05:43;100670.63;;;21.15;62.56
15646;BME280;7922;43.622;1.476;2023-07-13T07:08:08;100644.34;;;20.71;63.54
15646;BME280;7922;43.622;1.476;2023-07-13T07:10:34;100672.13;;;20.96;63.05
15646;BME280;7922;43.622;1.476;2023-07-13T07:13:00;100695.03;;;21.49;60.69
15646;BME280;7922;43.622;1.476;2023-07-13T07:15:26;100673.66;;;20.63;62.02
15646;BME280;7922;43.622;1.476;2023-07-13T07:17:51;100645.06;;;20.97;61.60
15646;BME280;7922;43.622;1.476;2023-07-13T07:20:17;100674.69;;;20.97;62.08
15646;BME280;7922;43.622;1.476;2023-07-13T07:22:42;100624.72;;;20.93;61.62
15646;BME280;7922;43.622;1.476;2023-07-13T07:25:08;100649.41;;;21.35;61.28
15646;BME280;7922;43.622;1.476;2023-07-13T07:27:33;100669.81;;;21.50;60.28
15646;BME280;7922;43.622;1.476;2023-07-13T07:29:59;100618.34;;;21.53;59.36
15646;BME280;7922;43.622;1.476;2023-07-13T07:32:24;100670.28;;;21.55;58.13
15646;BME280;7922;43.622;1.476;2023-07-13T07:34:49;100671.69;;;21.72;57.26
15646;BME280;7922;43.622;1.476;2023-07-13T07:37:15;100715.50;;;21.87;57.40
15646;BME280;7922;43.622;1.476;2023-07-13T07:39:41;100683.78;;;21.31;58.56
15646;BME280;7922;43.622;1.476;2023-07-13T07:42:07;100678.78;;;21.62;58.64
15646;BME280;7922;43.622;1.476;2023-07-13T07:44:32;100689.53;;;22.08;57.65
15646;BME280;7922;43.622;1.476;2023-07-13T07:46:58;100672.03;;;21.32;58.67
15646;BME280;7922;43.622;1.476;2023-07-13T07:49:24;100698.13;;;21.32;59.40
15646;BME280;7922;43.622;1.476;2023-07-13T07:51:49;100652.44;;;21.77;58.10
15646;BME280;7922;43.622;1.476;2023-07-13T07:54:15;100626.31;;;21.55;57.14
15646;BME280;7922;43.622;1.476;2023-07-13T07:56:41;100685.25;;;21.59;57.00
15646;BME280;7922;43.622;1.476;2023-07-13T07:59:06;100661.94;;;21.23;57.79
15646;BME280;7922;43.622;1.476;2023-07-13T08:01:31;100676.34;;;21.70;58.11
15646;BME280;7922;43.622;1.476;2023-07-13T08:03:56;100680.19;;;21.90;57.87
15646;BME280;7922;43.622;1.476;2023-07-13T08:06:22;100675.88;;;21.76;57.99
15646;BME280;7922;43.622;1.476;2023-07-13T08:08:47;100649.59;;;21.56;57.78
15646;BME280;7922;43.622;1.476;2023-07-13T08:11:13;100689.53;;;21.51;57.34
15646;BME280;7922;43.622;1.476;2023-07-13T08:13:38;100688.72;;;21.73;57.74
15646;BME280;7922;43.622;1.476;2023-07-13T08:16:05;100703.69;;;21.77;56.96
15646;BME280;7922;43.622;1.476;2023-07-13T08:18:31;100619.00;;;21.33;56.96
15646;BME280;7922;43.622;1.476;2023-07-13T08:20:56;100667.03;;;21.74;55.72
15646;BME280;7922;43.622;1.476;2023-07-13T08:23:22;100639.28;;;20.90;56.74
15646;BME280;7922;43.622;1.476;2023-07-13T08:25:51;100623.19;;;21.13;56.74
15646;BME280;7922;43.622;1.476;2023-07-13T08:28:16;100679.66;;;21.85;54.77
15646;BME280;7922;43.622;1.476;2023-07-13T08:30:42;100657.78;;;21.43;56.03
15646;BME280;7922;43.622;1.476;2023-07-13T08:33:07;100642.72;;;21.28;56.43
15646;BME280;7922;43.622;1.476;2023-07-13T08:35:32;100627.53;;;21.62;55.47
15646;BME280;7922;43.622;1.476;2023-07-13T08:37:57;100672.34;;;21.41;54.75
15646;BME280;7922;43.622;1.476;2023-07-13T08:40:24;100654.59;;;21.49;54.06
15646;BME280;7922;43.622;1.476;2023-07-13T08:42:54;100703.84;;;21.86;54.32
15646;BME280;7922;43.622;1.476;2023-07-13T08:45:24;100695.75;;;21.86;55.04
15646;BME280;7922;43.622;1.476;2023-07-13T08:47:57;100685.22;;;21.95;54.29
15646;BME280;7922;43.622;1.476;2023-07-13T08:50:33;100649.88;;;21.75;52.39
15646;BME280;7922;43.622;1.476;2023-07-13T08:53:01;100714.59;;;21.75;52.08
15646;BME280;7922;43.622;1.476;2023-07-13T08:55:30;100667.16;;;21.73;52.72
15646;BME280;7922;43.622;1.476;2023-07-13T08:58:22;100702.63;;;21.91;50.96
15646;BME280;7922;43.622;1.476;2023-07-13T09:01:06;100677.97;;;21.84;50.82
15646;BME280;7922;43.622;1.476;2023-07-13T09:03:41;100684.25;;;21.49;51.58
15646;BME280;7922;43.622;1.476;2023-07-13T09:06:12;100670.22;;;21.79;52.50
15646;BME280;7922;43.622;1.476;2023-07-13T09:17:04;100695.41;;;22.70;53.06
15646;BME280;7922;43.622;1.476;2023-07-13T09:19:32;100671.56;;;22.75;53.23
15646;BME280;7922;43.622;1.476;2023-07-13T09:21:59;100643.88;;;22.50;51.61
15646;BME280;7922;43.622;1.476;2023-07-13T09:24:36;100692.88;;;22.23;52.96
15646;BME280;7922;43.622;1.476;2023-07-13T09:27:09;100696.53;;;22.45;53.72
15646;BME280;7922;43.622;1.476;2023-07-13T09:29:41;100690.25;;;22.67;53.11
15646;BME280;7922;43.622;1.476;2023-07-13T09:32:09;100658.59;;;22.46;53.09
15646;BME280;7922;43.622;1.476;2023-07-13T09:34:37;100683.75;;;22.58;52.82
15646;BME280;7922;43.622;1.476;2023-07-13T09:37:02;100692.69;;;22.58;53.47
15646;BME280;7922;43.622;1.476;2023-07-13T09:39:39;100630.31;;;22.73;52.64
15646;BME280;7922;43.622;1.476;2023-07-13T09:44:37;100614.97;;;22.19;52.86
15646;BME280;7922;43.622;1.476;2023-07-13T09:47:12;100637.78;;;22.37;52.98
15646;BME280;7922;43.622;1.476;2023-07-13T09:49:40;100706.03;;;23.05;52.88
15646;BME280;7922;43.622;1.476;2023-07-13T09:52:07;100704.13;;;23.28;51.76
15646;BME280;7922;43.622;1.476;2023-07-13T09:54:36;100688.56;;;23.62;50.69
15646;BME280;7922;43.622;1.476;2023-07-13T09:57:03;100678.13;;;23.37;51.58
15646;BME280;7922;43.622;1.476;2023-07-13T09:59:40;100635.53;;;23.29;51.13
15646;BME280;7922;43.622;1.476;2023-07-13T10:02:38;100699.88;;;24.40;49.97
15646;BME280;7922;43.622;1.476;2023-07-13T10:05:06;100680.84;;;24.30;50.09
15646;BME280;7922;43.622;1.476;2023-07-13T10:07:38;100676.25;;;25.11;47.06
15646;BME280;7922;43.622;1.476;2023-07-13T10:10:16;100696.50;;;25.75;45.96
15646;BME280;7922;43.622;1.476;2023-07-13T10:12:43;100640.81;;;24.74;47.81
15646;BME280;7922;43.622;1.476;2023-07-13T10:15:29;100708.16;;;24.98;48.53
15646;BME280;7922;43.622;1.476;2023-07-13T10:17:55;100681.47;;;24.93;48.63
15646;BME280;7922;43.622;1.476;2023-07-13T10:20:21;100686.25;;;25.20;47.43
15646;BME280;7922;43.622;1.476;2023-07-13T10:25:17;100712.59;;;24.18;50.26
15646;BME280;7922;43.622;1.476;2023-07-13T10:27:43;100685.19;;;24.42;49.58
15646;BME280;7922;43.622;1.476;2023-07-13T10:32:35;100655.47;;;24.31;49.15
15646;BME280;7922;43.622;1.476;2023-07-13T10:35:00;100682.28;;;24.03;50.45
15646;BME280;7922;43.622;1.476;2023-07-13T10:37:28;100706.03;;;24.92;48.99
15646;BME280;7922;43.622;1.476;2023-07-13T10:39:56;100696.47;;;24.17;50.26
15646;BME280;7922;43.622;1.476;2023-07-13T10:42:29;100688.38;;;24.57;49.68
15646;BME280;7922;43.622;1.476;2023-07-13T10:44:55;100693.50;;;24.20;50.62
15646;BME280;7922;43.622;1.476;2023-07-13T10:47:22;100680.19;;;24.88;48.86
15646;BME280;7922;43.622;1.476;2023-07-13T10:49:51;100699.97;;;24.38;49.75
15646;BME280;7922;43.622;1.476;2023-07-13T10:52:50;100711.28;;;24.84;48.42
15646;BME280;7922;43.622;1.476;2023-07-13T10:56:22;100710.09;;;24.67;49.54
15646;BME280;7922;43.622;1.476;2023-07-13T11:01:11;100673.09;;;25.06;48.17
15646;BME280;7922;43.622;1.476;2023-07-13T11:03:47;100650.22;;;24.89;48.54
15646;BME280;7922;43.622;1.476;2023-07-13T11:09:03;100696.50;;;25.75;47.66
15646;BME280;7922;43.622;1.476;2023-07-13T11:11:42;100699.22;;;25.56;47.78
15646;BME280;7922;43.622;1.476;2023-07-13T11:16:52;100644.34;;;24.55;49.01
15646;BME280;7922;43.622;1.476;2023-07-13T11:24:51;100688.63;;;25.04;48.98
15646;BME280;7922;43.622;1.476;2023-07-13T11:27:45;100682.91;;;24.97;48.88
15646;BME280;7922;43.622;1.476;2023-07-13T11:35:36;100627.97;;;24.66;48.28
15646;BME280;7922;43.622;1.476;2023-07-13T11:38:02;100660.00;;;24.61;48.89
15646;BME280;7922;43.622;1.476;2023-07-13T11:40:29;100672.06;;;25.56;47.38
15646;BME280;7922;43.622;1.476;2023-07-13T11:43:02;100661.84;;;25.20;48.15
15646;BME280;7922;43.622;1.476;2023-07-13T11:45:27;100636.28;;;25.42;47.68
15646;BME280;7922;43.622;1.476;2023-07-13T11:47:52;100631.34;;;24.49;48.83
15646;BME280;7922;43.622;1.476;2023-07-13T11:50:23;100601.44;;;24.80;48.57
15646;BME280;7922;43.622;1.476;2023-07-13T11:52:50;100599.25;;;24.54;49.18
15646;BME280;7922;43.622;1.476;2023-07-13T11:55:18;100649.13;;;25.11;48.43
15646;BME280;7922;43.622;1.476;2023-07-13T11:57:53;100624.72;;;25.11;48.37
15646;BME280;7922;43.622;1.476;2023-07-13T12:00:28;100651.50;;;25.63;47.52
15646;BME280;7922;43.622;1.476;2023-07-13T12:02:56;100633.19;;;25.84;46.89
15646;BME280;7922;43.622;1.476;2023-07-13T12:05:22;100624.38;;;25.63;46.65
15646;BME280;7922;43.622;1.476;2023-07-13T12:07:50;100653.22;;;26.21;46.37
15646;BME280;7922;43.622;1.476;2023-07-13T12:10:23;100584.78;;;25.13;47.90
15646;BME280;7922;43.622;1.476;2023-07-13T12:12:53;100595.47;;;24.95;48.09
15646;BME280;7922;43.622;1.476;2023-07-13T12:15:19;100581.75;;;24.68;49.05
15646;BME280;7922;43.622;1.476;2023-07-13T12:17:45;100579.34;;;25.13;48.18
15646;BME280;7922;43.622;1.476;2023-07-13T12:20:23;100580.91;;;25.16;47.95
15646;BME280;7922;43.622;1.476;2023-07-13T12:22:50;100560.34;;;25.04;47.36
15646;BME280;7922;43.622;1.476;2023-07-13T12:25:16;100610.41;;;24.70;48.66
15646;BME280;7922;43.622;1.476;2023-07-13T12:27:41;100615.97;;;24.79;49.31
15646;BME280;7922;43.622;1.476;2023-07-13T12:30:30;100584.03;;;24.82;48.42
15646;BME280;7922;43.622;1.476;2023-07-13T12:32:58;100577.06;;;24.70;48.71
15646;BME280;7922;43.622;1.476;2023-07-13T12:35:26;100597.28;;;24.76;48.65
15646;BME280;7922;43.622;1.476;2023-07-13T12:37:51;100571.94;;;24.77;48.21
15646;BME280;7922;43.622;1.476;2023-07-13T12:40:18;100574.91;;;24.83;48.73
15646;BME280;7922;43.622;1.476;2023-07-13T12:42:46;100569.19;;;25.25;47.76
15646;BME280;7922;43.622;1.476;2023-07-13T12:45:22;100617.97;;;25.54;47.66
15646;BME280;7922;43.622;1.476;2023-07-13T12:47:53;100610.22;;;25.79;46.55
15646;BME280;7922;43.622;1.476;2023-07-13T12:50:23;100564.19;;;25.87;46.58
15646;BME280;7922;43.622;1.476;2023-07-13T12:52:54;100588.09;;;26.11;46.64
15646;BME280;7922;43.622;1.476;2023-07-13T12:55:22;100607.16;;;25.15;48.19
15646;BME280;7922;43.622;1.476;2023-07-13T12:57:54;100540.66;;;25.02;48.29
15646;BME280;7922;43.622;1.476;2023-07-13T13:02:56;100541.09;;;25.07;47.34
15646;BME280;7922;43.622;1.476;2023-07-13T13:05:24;100586.75;;;25.11;47.80
15646;BME280;7922;43.622;1.476;2023-07-13T13:07:50;100604.84;;;25.40;48.00
15646;BME280;7922;43.622;1.476;2023-07-13T13:10:15;100579.19;;;25.25;47.68
15646;BME280;7922;43.622;1.476;2023-07-13T13:12:41;100548.31;;;24.38;48.91
15646;BME280;7922;43.622;1.476;2023-07-13T13:15:07;100570.22;;;24.66;49.20
15646;BME280;7922;43.622;1.476;2023-07-13T13:17:32;100533.28;;;24.84;47.92
15646;BME280;7922;43.622;1.476;2023-07-13T13:19:58;100585.75;;;25.22;47.29
15646;BME280;7922;43.622;1.476;2023-07-13T13:22:23;100538.16;;;25.94;45.74
15646;BME280;7922;43.622;1.476;2023-07-13T13:24:48;100573.94;;;26.62;44.25
15646;BME280;7922;43.622;1.476;2023-07-13T13:27:16;100589.53;;;26.60;44.80
15646;BME280;7922;43.622;1.476;2023-07-13T13:29:42;100529.16;;;25.93;45.41
15646;BME280;7922;43.622;1.476;2023-07-13T13:32:10;100574.44;;;26.21;45.37
15646;BME280;7922;43.622;1.476;2023-07-13T13:34:37;100526.47;;;25.74;45.91
15646;BME280;7922;43.622;1.476;2023-07-13T13:37:02;100571.88;;;25.44;46.40
15646;BME280;7922;43.622;1.476;2023-07-13T13:39:34;100588.41;;;25.61;46.46
15646;BME280;7922;43.622;1.476;2023-07-13T13:41:59;100561.81;;;26.02;45.64